< Cyclone 201730 2018 Season Cyclone 201803 >
Cyclone 201802 (Cempaka)
General InformationTrack Information on Google MapsDetailed Wind InformationList of All Images || ResourceGoogle EarthGE AnimationAtom FeedGeoJSON
Detalied Best Track (Time Zone = UTC)
Year Month Day Hour Lat. Long. Pressure (hPa) Wind (kt) Class Image Chart
2017 11 21 00 -9.9 112.0 1004 15 2 Image --
2017 11 21 06 -10.4 112.3 1004 15 2 Image --
2017 11 21 12 -9.9 111.8 1004 15 2 Image --
2017 11 21 18 -9.9 111.8 1004 15 2 Image --
2017 11 22 00 -9.6 111.8 1004 15 2 Image --
2017 11 22 12 -9.8 111.7 1004 15 2 Image --
2017 11 23 00 -9.5 111.5 1004 15 2 Image --
2017 11 23 12 -10.3 111.4 1004 15 2 Image --
2017 11 24 00 -9.6 110.8 1004 15 2 Image --
2017 11 24 12 -9.4 110.7 1004 15 2 Image --
2017 11 25 00 -9.6 109.5 1004 20 2 Image --
2017 11 25 12 -8.9 109.3 1005 20 2 Image --
2017 11 26 00 -9.3 109.1 1004 20 2 Image --
2017 11 26 12 -9.1 109.3 1003 20 2 Image --
2017 11 26 18 -8.8 109.6 1003 25 2 Image --
2017 11 27 00 -8.7 109.8 1000 25 2 Image --
2017 11 27 06 -8.5 110.4 998 30 2 Image --
2017 11 27 12 -8.5 110.8 999 35 3 Image --
2017 11 27 18 -8.3 111.0 998 35 3 Image --
2017 11 28 00 -8.4 111.2 999 35 3 Image --
2017 11 28 06 -8.6 111.0 998 35 3 Image --
2017 11 28 12 -8.4 110.2 998 35 3 Image --
2017 11 28 18 -9.3 111.0 998 35 3 Image --
2017 11 29 00 -9.4 111.5 1000 25 2 Image --
< Cyclone 201730 2018 Season Cyclone 201803 >

Help